< < Back
Terminal Aerodrome Forecast


Current Version              Previous Versions:   1  2  3  4  5  6  7  8  9  

Terminal Aerodrome Forecast

582
FTUS42 KTAE 241600 AAA
TAFVLD
TAF AMD
KVLD 241602Z 2416/2512 24005KT P6SM BKN025
     FM241900 24008KT P6SM VCTS SCT040CB SCT100
     FM250000 24005KT P6SM BKN250=



Latest METAR

863
SAUS70 KWBC 250900 RRB
MTRVLD
METAR KVLD 250853Z AUTO 00000KT 5SM BR CLR 24/22 A3002 RMK AO2 SLP171
T02390217 53005


USA.gov is the U.S. government's official web portal to all federal, state and local government web resources and services.